sensor_id;sensor_type;location;lat;lon;timestamp;P1;durP1;ratioP1;P2;durP2;ratioP2
28007;SDS011;15333;50.010;20.020;2023-12-28T00:01:20;147.98;;;82.45;;
28007;SDS011;15333;50.010;20.020;2023-12-28T00:04:22;153.68;;;85.82;;
28007;SDS011;15333;50.010;20.020;2023-12-28T00:07:23;140.25;;;75.63;;
28007;SDS011;15333;50.010;20.020;2023-12-28T00:10:24;138.25;;;78.90;;
28007;SDS011;15333;50.010;20.020;2023-12-28T00:13:26;145.15;;;78.53;;
28007;SDS011;15333;50.010;20.020;2023-12-28T00:16:27;139.25;;;79.10;;
28007;SDS011;15333;50.010;20.020;2023-12-28T00:19:28;146.50;;;76.50;;
28007;SDS011;15333;50.010;20.020;2023-12-28T00:22:29;147.55;;;82.78;;
28007;SDS011;15333;50.010;20.020;2023-12-28T00:25:30;135.65;;;73.82;;
28007;SDS011;15333;50.010;20.020;2023-12-28T00:28:31;138.27;;;73.65;;
28007;SDS011;15333;50.010;20.020;2023-12-28T00:31:32;138.93;;;71.85;;
28007;SDS011;15333;50.010;20.020;2023-12-28T00:34:32;138.25;;;71.25;;
28007;SDS011;15333;50.010;20.020;2023-12-28T00:37:33;139.00;;;71.82;;
28007;SDS011;15333;50.010;20.020;2023-12-28T00:40:34;129.05;;;74.07;;
28007;SDS011;15333;50.010;20.020;2023-12-28T00:43:35;137.20;;;74.43;;
28007;SDS011;15333;50.010;20.020;2023-12-28T00:46:36;135.65;;;71.78;;
28007;SDS011;15333;50.010;20.020;2023-12-28T00:49:37;141.23;;;74.47;;
28007;SDS011;15333;50.010;20.020;2023-12-28T00:52:38;137.38;;;75.22;;
28007;SDS011;15333;50.010;20.020;2023-12-28T00:55:38;145.50;;;75.15;;
28007;SDS011;15333;50.010;20.020;2023-12-28T00:58:39;136.75;;;71.63;;
28007;SDS011;15333;50.010;20.020;2023-12-28T01:01:41;139.73;;;73.75;;
28007;SDS011;15333;50.010;20.020;2023-12-28T01:04:41;141.98;;;76.07;;
28007;SDS011;15333;50.010;20.020;2023-12-28T01:07:43;133.05;;;72.57;;
28007;SDS011;15333;50.010;20.020;2023-12-28T01:10:43;139.02;;;77.53;;
28007;SDS011;15333;50.010;20.020;2023-12-28T01:13:44;143.90;;;76.57;;
28007;SDS011;15333;50.010;20.020;2023-12-28T01:16:45;147.00;;;80.55;;
28007;SDS011;15333;50.010;20.020;2023-12-28T01:19:46;147.52;;;77.88;;
28007;SDS011;15333;50.010;20.020;2023-12-28T01:22:47;138.50;;;78.03;;
28007;SDS011;15333;50.010;20.020;2023-12-28T01:25:50;142.70;;;79.57;;
28007;SDS011;15333;50.010;20.020;2023-12-28T01:28:51;143.15;;;80.43;;
28007;SDS011;15333;50.010;20.020;2023-12-28T01:31:52;144.43;;;81.90;;
28007;SDS011;15333;50.010;20.020;2023-12-28T01:34:52;141.30;;;79.53;;
28007;SDS011;15333;50.010;20.020;2023-12-28T01:37:54;144.45;;;79.38;;
28007;SDS011;15333;50.010;20.020;2023-12-28T01:40:55;145.00;;;77.38;;
28007;SDS011;15333;50.010;20.020;2023-12-28T01:43:56;135.32;;;75.60;;
28007;SDS011;15333;50.010;20.020;2023-12-28T01:46:57;136.32;;;76.55;;
28007;SDS011;15333;50.010;20.020;2023-12-28T01:49:58;126.32;;;70.05;;
28007;SDS011;15333;50.010;20.020;2023-12-28T01:53:00;131.65;;;71.63;;
28007;SDS011;15333;50.010;20.020;2023-12-28T01:56:02;129.75;;;72.57;;
28007;SDS011;15333;50.010;20.020;2023-12-28T01:59:03;129.50;;;71.93;;
28007;SDS011;15333;50.010;20.020;2023-12-28T02:02:04;125.55;;;71.40;;
28007;SDS011;15333;50.010;20.020;2023-12-28T02:05:06;130.15;;;69.05;;
28007;SDS011;15333;50.010;20.020;2023-12-28T02:08:07;119.78;;;65.80;;
28007;SDS011;15333;50.010;20.020;2023-12-28T02:11:08;118.22;;;64.88;;
28007;SDS011;15333;50.010;20.020;2023-12-28T02:14:10;121.72;;;64.63;;
28007;SDS011;15333;50.010;20.020;2023-12-28T02:17:19;120.75;;;66.38;;
28007;SDS011;15333;50.010;20.020;2023-12-28T02:20:25;124.43;;;68.55;;
28007;SDS011;15333;50.010;20.020;2023-12-28T02:23:28;129.32;;;66.03;;
28007;SDS011;15333;50.010;20.020;2023-12-28T02:26:29;117.32;;;65.60;;
28007;SDS011;15333;50.010;20.020;2023-12-28T02:29:29;116.93;;;62.28;;
28007;SDS011;15333;50.010;20.020;2023-12-28T02:32:42;118.25;;;64.78;;
28007;SDS011;15333;50.010;20.020;2023-12-28T02:35:51;128.68;;;71.82;;
28007;SDS011;15333;50.010;20.020;2023-12-28T02:38:58;128.30;;;68.75;;
28007;SDS011;15333;50.010;20.020;2023-12-28T02:42:03;130.50;;;67.20;;
28007;SDS011;15333;50.010;20.020;2023-12-28T02:45:06;124.57;;;69.65;;
28007;SDS011;15333;50.010;20.020;2023-12-28T02:48:07;136.70;;;74.70;;
28007;SDS011;15333;50.010;20.020;2023-12-28T02:51:08;141.68;;;71.70;;
28007;SDS011;15333;50.010;20.020;2023-12-28T02:54:08;144.13;;;74.20;;
28007;SDS011;15333;50.010;20.020;2023-12-28T02:57:09;139.23;;;76.07;;
28007;SDS011;15333;50.010;20.020;2023-12-28T03:00:10;141.02;;;76.50;;
28007;SDS011;15333;50.010;20.020;2023-12-28T03:03:11;147.55;;;73.78;;
28007;SDS011;15333;50.010;20.020;2023-12-28T03:06:12;135.85;;;73.53;;
28007;SDS011;15333;50.010;20.020;2023-12-28T03:09:13;139.27;;;74.50;;
28007;SDS011;15333;50.010;20.020;2023-12-28T03:12:14;149.55;;;74.15;;
28007;SDS011;15333;50.010;20.020;2023-12-28T03:15:17;148.15;;;76.93;;
28007;SDS011;15333;50.010;20.020;2023-12-28T03:18:17;138.18;;;70.35;;
28007;SDS011;15333;50.010;20.020;2023-12-28T03:21:18;135.57;;;70.18;;
28007;SDS011;15333;50.010;20.020;2023-12-28T03:24:19;128.35;;;68.63;;
28007;SDS011;15333;50.010;20.020;2023-12-28T03:27:20;134.05;;;70.13;;
28007;SDS011;15333;50.010;20.020;2023-12-28T03:30:21;130.82;;;69.57;;
28007;SDS011;15333;50.010;20.020;2023-12-28T03:33:22;132.95;;;71.38;;
28007;SDS011;15333;50.010;20.020;2023-12-28T03:36:22;130.68;;;69.22;;
28007;SDS011;15333;50.010;20.020;2023-12-28T03:39:24;127.45;;;68.57;;
28007;SDS011;15333;50.010;20.020;2023-12-28T03:42:24;124.05;;;69.53;;
28007;SDS011;15333;50.010;20.020;2023-12-28T03:45:25;133.13;;;71.03;;
28007;SDS011;15333;50.010;20.020;2023-12-28T03:48:26;129.88;;;74.35;;
28007;SDS011;15333;50.010;20.020;2023-12-28T03:51:27;128.90;;;68.90;;
28007;SDS011;15333;50.010;20.020;2023-12-28T03:54:28;136.23;;;70.22;;
28007;SDS011;15333;50.010;20.020;2023-12-28T03:57:29;130.77;;;68.88;;
28007;SDS011;15333;50.010;20.020;2023-12-28T04:00:29;135.65;;;73.18;;
28007;SDS011;15333;50.010;20.020;2023-12-28T04:03:32;132.98;;;73.00;;
28007;SDS011;15333;50.010;20.020;2023-12-28T04:06:33;136.90;;;73.75;;
28007;SDS011;15333;50.010;20.020;2023-12-28T04:09:34;134.75;;;71.22;;
28007;SDS011;15333;50.010;20.020;2023-12-28T04:12:35;135.27;;;71.50;;
28007;SDS011;15333;50.010;20.020;2023-12-28T04:15:37;132.90;;;71.30;;
28007;SDS011;15333;50.010;20.020;2023-12-28T04:18:41;138.57;;;74.60;;
28007;SDS011;15333;50.010;20.020;2023-12-28T04:21:43;147.60;;;80.18;;
28007;SDS011;15333;50.010;20.020;2023-12-28T04:24:44;126.65;;;74.10;;
28007;SDS011;15333;50.010;20.020;2023-12-28T04:27:45;135.05;;;75.07;;
28007;SDS011;15333;50.010;20.020;2023-12-28T04:30:46;136.02;;;74.15;;
28007;SDS011;15333;50.010;20.020;2023-12-28T04:33:47;128.98;;;72.95;;
28007;SDS011;15333;50.010;20.020;2023-12-28T04:36:48;133.20;;;70.32;;
28007;SDS011;15333;50.010;20.020;2023-12-28T04:39:50;127.45;;;72.45;;
28007;SDS011;15333;50.010;20.020;2023-12-28T04:42:51;119.68;;;67.72;;
28007;SDS011;15333;50.010;20.020;2023-12-28T04:45:52;132.23;;;73.80;;
28007;SDS011;15333;50.010;20.020;2023-12-28T04:48:53;116.05;;;63.88;;
28007;SDS011;15333;50.010;20.020;2023-12-28T04:51:54;121.07;;;67.50;;
28007;SDS011;15333;50.010;20.020;2023-12-28T04:54:55;110.30;;;63.35;;
28007;SDS011;15333;50.010;20.020;2023-12-28T04:57:57;115.72;;;64.70;;
28007;SDS011;15333;50.010;20.020;2023-12-28T05:00:58;109.25;;;56.40;;
28007;SDS011;15333;50.010;20.020;2023-12-28T05:03:59;112.40;;;61.22;;
28007;SDS011;15333;50.010;20.020;2023-12-28T05:06:59;122.60;;;67.43;;
28007;SDS011;15333;50.010;20.020;2023-12-28T05:10:00;118.80;;;63.85;;
28007;SDS011;15333;50.010;20.020;2023-12-28T05:13:01;135.75;;;78.30;;
28007;SDS011;15333;50.010;20.020;2023-12-28T05:16:02;141.60;;;81.53;;
28007;SDS011;15333;50.010;20.020;2023-12-28T05:19:03;147.55;;;84.47;;
28007;SDS011;15333;50.010;20.020;2023-12-28T05:22:04;136.77;;;82.55;;
28007;SDS011;15333;50.010;20.020;2023-12-28T05:25:07;131.98;;;77.63;;
28007;SDS011;15333;50.010;20.020;2023-12-28T05:28:08;130.18;;;69.93;;
28007;SDS011;15333;50.010;20.020;2023-12-28T05:31:09;140.70;;;76.53;;
28007;SDS011;15333;50.010;20.020;2023-12-28T05:34:10;158.65;;;89.68;;
28007;SDS011;15333;50.010;20.020;2023-12-28T05:37:11;140.40;;;78.07;;
28007;SDS011;15333;50.010;20.020;2023-12-28T05:40:12;138.57;;;80.47;;
28007;SDS011;15333;50.010;20.020;2023-12-28T05:43:13;145.00;;;79.20;;
28007;SDS011;15333;50.010;20.020;2023-12-28T05:46:14;128.05;;;72.82;;
28007;SDS011;15333;50.010;20.020;2023-12-28T05:49:14;133.30;;;75.30;;
28007;SDS011;15333;50.010;20.020;2023-12-28T05:52:15;135.80;;;75.35;;
28007;SDS011;15333;50.010;20.020;2023-12-28T05:55:18;135.15;;;76.35;;
28007;SDS011;15333;50.010;20.020;2023-12-28T05:58:20;136.73;;;74.10;;
28007;SDS011;15333;50.010;20.020;2023-12-28T06:01:20;140.13;;;76.03;;
28007;SDS011;15333;50.010;20.020;2023-12-28T06:04:21;149.25;;;77.57;;
28007;SDS011;15333;50.010;20.020;2023-12-28T06:07:22;143.18;;;76.10;;
28007;SDS011;15333;50.010;20.020;2023-12-28T06:10:23;136.93;;;79.53;;
28007;SDS011;15333;50.010;20.020;2023-12-28T06:13:24;148.07;;;74.25;;
28007;SDS011;15333;50.010;20.020;2023-12-28T06:16:25;131.82;;;67.40;;
28007;SDS011;15333;50.010;20.020;2023-12-28T06:19:26;131.55;;;70.20;;
28007;SDS011;15333;50.010;20.020;2023-12-28T06:22:27;131.55;;;73.43;;
28007;SDS011;15333;50.010;20.020;2023-12-28T06:25:28;128.23;;;71.10;;
28007;SDS011;15333;50.010;20.020;2023-12-28T06:28:29;124.75;;;70.05;;
28007;SDS011;15333;50.010;20.020;2023-12-28T06:31:29;128.20;;;71.22;;
28007;SDS011;15333;50.010;20.020;2023-12-28T06:34:31;121.15;;;66.88;;
28007;SDS011;15333;50.010;20.020;2023-12-28T06:37:34;114.25;;;66.93;;
28007;SDS011;15333;50.010;20.020;2023-12-28T06:40:35;118.30;;;65.05;;
28007;SDS011;15333;50.010;20.020;2023-12-28T06:43:36;101.85;;;57.60;;
28007;SDS011;15333;50.010;20.020;2023-12-28T06:46:37;113.55;;;62.10;;
28007;SDS011;15333;50.010;20.020;2023-12-28T06:49:37;95.25;;;52.65;;
28007;SDS011;15333;50.010;20.020;2023-12-28T06:52:38;95.15;;;54.38;;
28007;SDS011;15333;50.010;20.020;2023-12-28T06:55:39;102.03;;;58.15;;
28007;SDS011;15333;50.010;20.020;2023-12-28T06:58:40;87.95;;;50.97;;
28007;SDS011;15333;50.010;20.020;2023-12-28T07:01:41;99.50;;;58.00;;
28007;SDS011;15333;50.010;20.020;2023-12-28T07:04:42;95.65;;;56.03;;
28007;SDS011;15333;50.010;20.020;2023-12-28T07:07:43;87.53;;;51.38;;
28007;SDS011;15333;50.010;20.020;2023-12-28T07:10:44;99.85;;;56.55;;
28007;SDS011;15333;50.010;20.020;2023-12-28T07:13:45;106.07;;;59.67;;
28007;SDS011;15333;50.010;20.020;2023-12-28T07:16:46;103.32;;;58.97;;
28007;SDS011;15333;50.010;20.020;2023-12-28T07:19:46;112.88;;;59.65;;
28007;SDS011;15333;50.010;20.020;2023-12-28T07:22:47;116.18;;;59.60;;
28007;SDS011;15333;50.010;20.020;2023-12-28T07:25:48;97.47;;;52.65;;
28007;SDS011;15333;50.010;20.020;2023-12-28T07:28:49;82.07;;;44.55;;
28007;SDS011;15333;50.010;20.020;2023-12-28T07:31:50;111.20;;;56.35;;
28007;SDS011;15333;50.010;20.020;2023-12-28T07:34:54;97.82;;;52.65;;
28007;SDS011;15333;50.010;20.020;2023-12-28T07:37:55;114.47;;;60.22;;
28007;SDS011;15333;50.010;20.020;2023-12-28T07:40:56;109.65;;;59.88;;
28007;SDS011;15333;50.010;20.020;2023-12-28T07:43:56;121.53;;;61.35;;
28007;SDS011;15333;50.010;20.020;2023-12-28T07:46:58;112.45;;;60.25;;
28007;SDS011;15333;50.010;20.020;2023-12-28T07:49:59;116.22;;;58.92;;
28007;SDS011;15333;50.010;20.020;2023-12-28T07:53:01;104.47;;;56.40;;
28007;SDS011;15333;50.010;20.020;2023-12-28T07:56:01;104.88;;;56.13;;
28007;SDS011;15333;50.010;20.020;2023-12-28T07:59:02;99.47;;;51.85;;
28007;SDS011;15333;50.010;20.020;2023-12-28T08:02:04;107.93;;;56.80;;
28007;SDS011;15333;50.010;20.020;2023-12-28T08:05:05;98.63;;;53.00;;
28007;SDS011;15333;50.010;20.020;2023-12-28T08:08:07;100.22;;;52.00;;
28007;SDS011;15333;50.010;20.020;2023-12-28T08:11:08;93.28;;;52.47;;
28007;SDS011;15333;50.010;20.020;2023-12-28T08:14:08;101.15;;;52.50;;
28007;SDS011;15333;50.010;20.020;2023-12-28T08:17:09;96.90;;;50.25;;
28007;SDS011;15333;50.010;20.020;2023-12-28T08:20:10;91.47;;;49.17;;
28007;SDS011;15333;50.010;20.020;2023-12-28T08:23:11;96.57;;;52.85;;
28007;SDS011;15333;50.010;20.020;2023-12-28T08:26:12;94.68;;;50.85;;
28007;SDS011;15333;50.010;20.020;2023-12-28T08:29:13;95.28;;;50.20;;
28007;SDS011;15333;50.010;20.020;2023-12-28T08:32:14;92.10;;;48.25;;
28007;SDS011;15333;50.010;20.020;2023-12-28T08:35:15;89.82;;;49.00;;
28007;SDS011;15333;50.010;20.020;2023-12-28T08:38:15;96.75;;;49.25;;
28007;SDS011;15333;50.010;20.020;2023-12-28T08:41:19;98.78;;;49.35;;
28007;SDS011;15333;50.010;20.020;2023-12-28T08:44:21;98.35;;;49.88;;
28007;SDS011;15333;50.010;20.020;2023-12-28T08:47:21;96.50;;;49.30;;
28007;SDS011;15333;50.010;20.020;2023-12-28T08:50:22;79.40;;;44.00;;
28007;SDS011;15333;50.010;20.020;2023-12-28T08:53:23;92.25;;;47.35;;
28007;SDS011;15333;50.010;20.020;2023-12-28T08:56:24;90.80;;;47.97;;
28007;SDS011;15333;50.010;20.020;2023-12-28T08:59:25;92.18;;;49.55;;
28007;SDS011;15333;50.010;20.020;2023-12-28T09:02:29;99.57;;;50.20;;
28007;SDS011;15333;50.010;20.020;2023-12-28T09:05:30;91.40;;;46.88;;
28007;SDS011;15333;50.010;20.020;2023-12-28T09:08:31;91.50;;;46.28;;
28007;SDS011;15333;50.010;20.020;2023-12-28T09:11:32;88.45;;;44.95;;
28007;SDS011;15333;50.010;20.020;2023-12-28T09:14:32;89.53;;;47.45;;
28007;SDS011;15333;50.010;20.020;2023-12-28T09:17:34;87.97;;;47.38;;
28007;SDS011;15333;50.010;20.020;2023-12-28T09:20:35;90.38;;;46.78;;
28007;SDS011;15333;50.010;20.020;2023-12-28T09:23:36;84.07;;;44.17;;
28007;SDS011;15333;50.010;20.020;2023-12-28T09:26:37;82.75;;;44.17;;
28007;SDS011;15333;50.010;20.020;2023-12-28T09:29:38;87.28;;;42.85;;
28007;SDS011;15333;50.010;20.020;2023-12-28T09:32:39;82.60;;;42.38;;
28007;SDS011;15333;50.010;20.020;2023-12-28T09:35:40;80.35;;;40.67;;
28007;SDS011;15333;50.010;20.020;2023-12-28T09:38:41;81.50;;;40.78;;
28007;SDS011;15333;50.010;20.020;2023-12-28T09:41:43;77.32;;;40.10;;
28007;SDS011;15333;50.010;20.020;2023-12-28T09:44:46;73.07;;;37.88;;
28007;SDS011;15333;50.010;20.020;2023-12-28T09:47:47;73.50;;;39.53;;
28007;SDS011;15333;50.010;20.020;2023-12-28T09:50:51;70.47;;;38.38;;
28007;SDS011;15333;50.010;20.020;2023-12-28T09:53:55;79.28;;;37.70;;
28007;SDS011;15333;50.010;20.020;2023-12-28T09:56:56;66.75;;;34.38;;
28007;SDS011;15333;50.010;20.020;2023-12-28T09:59:58;55.33;;;29.40;;
28007;SDS011;15333;50.010;20.020;2023-12-28T10:02:59;62.40;;;32.42;;
28007;SDS011;15333;50.010;20.020;2023-12-28T10:06:01;62.85;;;32.83;;
28007;SDS011;15333;50.010;20.020;2023-12-28T10:09:02;71.72;;;36.95;;
28007;SDS011;15333;50.010;20.020;2023-12-28T10:12:03;54.35;;;26.90;;
28007;SDS011;15333;50.010;20.020;2023-12-28T10:15:04;51.13;;;26.25;;
28007;SDS011;15333;50.010;20.020;2023-12-28T10:18:06;58.60;;;27.88;;
28007;SDS011;15333;50.010;20.020;2023-12-28T10:21:07;53.50;;;27.88;;
28007;SDS011;15333;50.010;20.020;2023-12-28T10:24:09;52.05;;;28.13;;
28007;SDS011;15333;50.010;20.020;2023-12-28T10:27:10;59.25;;;28.33;;
28007;SDS011;15333;50.010;20.020;2023-12-28T10:30:14;52.22;;;28.75;;
28007;SDS011;15333;50.010;20.020;2023-12-28T10:33:15;50.03;;;28.80;;
28007;SDS011;15333;50.010;20.020;2023-12-28T10:36:16;53.70;;;27.98;;
28007;SDS011;15333;50.010;20.020;2023-12-28T10:39:20;54.10;;;27.17;;
28007;SDS011;15333;50.010;20.020;2023-12-28T10:42:29;54.50;;;27.90;;
28007;SDS011;15333;50.010;20.020;2023-12-28T10:45:32;48.22;;;25.85;;
28007;SDS011;15333;50.010;20.020;2023-12-28T10:48:37;50.78;;;26.48;;
28007;SDS011;15333;50.010;20.020;2023-12-28T10:51:42;50.15;;;25.20;;
28007;SDS011;15333;50.010;20.020;2023-12-28T10:54:45;51.97;;;25.73;;
28007;SDS011;15333;50.010;20.020;2023-12-28T11:01:12;51.05;;;26.77;;
28007;SDS011;15333;50.010;20.020;2023-12-28T11:04:24;50.83;;;26.73;;
28007;SDS011;15333;50.010;20.020;2023-12-28T11:07:29;49.40;;;27.38;;
28007;SDS011;15333;50.010;20.020;2023-12-28T11:10:33;48.28;;;26.27;;
28007;SDS011;15333;50.010;20.020;2023-12-28T11:13:36;54.83;;;28.73;;
28007;SDS011;15333;50.010;20.020;2023-12-28T11:16:38;57.63;;;30.50;;
28007;SDS011;15333;50.010;20.020;2023-12-28T11:19:42;53.20;;;28.33;;
28007;SDS011;15333;50.010;20.020;2023-12-28T11:22:43;54.35;;;30.65;;
28007;SDS011;15333;50.010;20.020;2023-12-28T11:25:45;58.83;;;31.50;;
28007;SDS011;15333;50.010;20.020;2023-12-28T11:28:46;56.80;;;30.65;;
28007;SDS011;15333;50.010;20.020;2023-12-28T11:31:50;58.45;;;30.05;;
28007;SDS011;15333;50.010;20.020;2023-12-28T11:34:58;58.80;;;30.60;;
28007;SDS011;15333;50.010;20.020;2023-12-28T11:37:59;60.53;;;31.63;;
28007;SDS011;15333;50.010;20.020;2023-12-28T11:41:04;56.30;;;28.67;;
28007;SDS011;15333;50.010;20.020;2023-12-28T11:44:05;59.95;;;30.10;;
28007;SDS011;15333;50.010;20.020;2023-12-28T11:50:17;49.42;;;27.02;;
28007;SDS011;15333;50.010;20.020;2023-12-28T11:53:17;54.88;;;28.52;;
28007;SDS011;15333;50.010;20.020;2023-12-28T11:56:20;47.55;;;27.25;;
28007;SDS011;15333;50.010;20.020;2023-12-28T11:59:21;51.63;;;27.80;;
28007;SDS011;15333;50.010;20.020;2023-12-28T12:02:22;52.45;;;27.65;;
28007;SDS011;15333;50.010;20.020;2023-12-28T12:05:24;48.95;;;27.95;;
28007;SDS011;15333;50.010;20.020;2023-12-28T12:08:25;54.92;;;28.08;;
28007;SDS011;15333;50.010;20.020;2023-12-28T12:11:26;59.25;;;27.90;;
28007;SDS011;15333;50.010;20.020;2023-12-28T12:14:29;52.88;;;28.40;;
28007;SDS011;15333;50.010;20.020;2023-12-28T12:17:30;52.70;;;28.65;;
28007;SDS011;15333;50.010;20.020;2023-12-28T12:20:31;55.08;;;28.48;;
28007;SDS011;15333;50.010;20.020;2023-12-28T12:23:32;50.33;;;29.52;;
28007;SDS011;15333;50.010;20.020;2023-12-28T12:26:33;50.75;;;28.20;;
28007;SDS011;15333;50.010;20.020;2023-12-28T12:29:36;50.30;;;28.33;;
28007;SDS011;15333;50.010;20.020;2023-12-28T12:32:37;49.55;;;28.73;;
28007;SDS011;15333;50.010;20.020;2023-12-28T12:35:40;50.13;;;27.58;;
28007;SDS011;15333;50.010;20.020;2023-12-28T12:38:41;52.03;;;28.17;;
28007;SDS011;15333;50.010;20.020;2023-12-28T12:41:42;50.22;;;27.58;;
28007;SDS011;15333;50.010;20.020;2023-12-28T12:44:43;50.28;;;26.48;;
28007;SDS011;15333;50.010;20.020;2023-12-28T12:47:44;49.05;;;26.27;;
28007;SDS011;15333;50.010;20.020;2023-12-28T12:50:47;42.88;;;24.60;;
28007;SDS011;15333;50.010;20.020;2023-12-28T12:53:48;52.05;;;25.50;;
28007;SDS011;15333;50.010;20.020;2023-12-28T12:56:51;45.92;;;25.08;;
28007;SDS011;15333;50.010;20.020;2023-12-28T12:59:53;46.67;;;24.90;;
28007;SDS011;15333;50.010;20.020;2023-12-28T13:02:54;46.15;;;25.15;;
28007;SDS011;15333;50.010;20.020;2023-12-28T13:05:56;48.55;;;24.77;;
28007;SDS011;15333;50.010;20.020;2023-12-28T13:08:58;39.17;;;20.73;;
28007;SDS011;15333;50.010;20.020;2023-12-28T13:11:58;45.40;;;24.27;;
28007;SDS011;15333;50.010;20.020;2023-12-28T13:14:59;41.28;;;23.58;;
28007;SDS011;15333;50.010;20.020;2023-12-28T13:18:01;41.78;;;23.50;;
28007;SDS011;15333;50.010;20.020;2023-12-28T13:21:02;46.75;;;24.98;;
28007;SDS011;15333;50.010;20.020;2023-12-28T13:24:03;48.88;;;23.95;;
28007;SDS011;15333;50.010;20.020;2023-12-28T13:27:04;45.38;;;23.58;;
28007;SDS011;15333;50.010;20.020;2023-12-28T13:30:05;44.53;;;23.58;;
28007;SDS011;15333;50.010;20.020;2023-12-28T13:33:06;44.08;;;23.15;;
28007;SDS011;15333;50.010;20.020;2023-12-28T13:36:07;48.97;;;23.00;;
28007;SDS011;15333;50.010;20.020;2023-12-28T13:39:08;38.88;;;21.00;;
28007;SDS011;15333;50.010;20.020;2023-12-28T13:42:11;42.10;;;21.90;;
28007;SDS011;15333;50.010;20.020;2023-12-28T13:45:12;47.53;;;22.13;;
28007;SDS011;15333;50.010;20.020;2023-12-28T13:48:13;40.40;;;20.02;;
28007;SDS011;15333;50.010;20.020;2023-12-28T13:51:14;34.53;;;18.15;;
28007;SDS011;15333;50.010;20.020;2023-12-28T13:54:15;30.13;;;16.95;;
28007;SDS011;15333;50.010;20.020;2023-12-28T13:57:16;27.23;;;16.10;;
28007;SDS011;15333;50.010;20.020;2023-12-28T14:00:17;29.73;;;16.73;;
28007;SDS011;15333;50.010;20.020;2023-12-28T14:03:18;29.63;;;15.48;;
28007;SDS011;15333;50.010;20.020;2023-12-28T14:06:19;24.67;;;14.07;;
28007;SDS011;15333;50.010;20.020;2023-12-28T14:09:21;26.15;;;13.82;;
28007;SDS011;15333;50.010;20.020;2023-12-28T14:12:21;29.92;;;15.50;;
28007;SDS011;15333;50.010;20.020;2023-12-28T14:15:22;28.52;;;15.27;;
28007;SDS011;15333;50.010;20.020;2023-12-28T14:18:23;31.48;;;16.63;;
28007;SDS011;15333;50.010;20.020;2023-12-28T14:21:25;31.67;;;18.77;;
28007;SDS011;15333;50.010;20.020;2023-12-28T14:24:26;40.88;;;19.60;;
28007;SDS011;15333;50.010;20.020;2023-12-28T14:27:28;35.80;;;20.10;;
28007;SDS011;15333;50.010;20.020;2023-12-28T14:30:29;38.35;;;21.35;;
28007;SDS011;15333;50.010;20.020;2023-12-28T14:33:31;43.35;;;21.08;;
28007;SDS011;15333;50.010;20.020;2023-12-28T14:36:33;36.78;;;20.98;;
28007;SDS011;15333;50.010;20.020;2023-12-28T14:39:36;40.20;;;22.15;;
28007;SDS011;15333;50.010;20.020;2023-12-28T14:42:38;47.05;;;22.60;;
28007;SDS011;15333;50.010;20.020;2023-12-28T14:45:40;39.75;;;22.95;;
28007;SDS011;15333;50.010;20.020;2023-12-28T14:48:41;50.63;;;24.58;;
28007;SDS011;15333;50.010;20.020;2023-12-28T14:51:42;50.72;;;24.40;;
28007;SDS011;15333;50.010;20.020;2023-12-28T14:54:43;43.65;;;24.52;;
28007;SDS011;15333;50.010;20.020;2023-12-28T14:57:44;41.40;;;24.17;;
28007;SDS011;15333;50.010;20.020;2023-12-28T15:00:45;44.83;;;24.10;;
28007;SDS011;15333;50.010;20.020;2023-12-28T15:03:46;43.67;;;23.08;;
28007;SDS011;15333;50.010;20.020;2023-12-28T15:06:47;44.40;;;23.50;;
28007;SDS011;15333;50.010;20.020;2023-12-28T15:09:48;44.20;;;22.17;;
28007;SDS011;15333;50.010;20.020;2023-12-28T15:12:49;37.20;;;20.98;;
28007;SDS011;15333;50.010;20.020;2023-12-28T15:15:51;38.67;;;20.58;;
28007;SDS011;15333;50.010;20.020;2023-12-28T15:18:52;38.63;;;19.58;;
28007;SDS011;15333;50.010;20.020;2023-12-28T15:21:53;33.53;;;18.40;;
28007;SDS011;15333;50.010;20.020;2023-12-28T15:24:54;37.00;;;19.25;;
28007;SDS011;15333;50.010;20.020;2023-12-28T15:27:55;32.85;;;18.10;;
28007;SDS011;15333;50.010;20.020;2023-12-28T15:30:56;31.65;;;17.30;;
28007;SDS011;15333;50.010;20.020;2023-12-28T15:33:57;31.85;;;18.33;;
28007;SDS011;15333;50.010;20.020;2023-12-28T15:36:57;32.47;;;17.98;;
28007;SDS011;15333;50.010;20.020;2023-12-28T15:39:58;36.20;;;18.30;;
28007;SDS011;15333;50.010;20.020;2023-12-28T15:42:59;31.27;;;16.35;;
28007;SDS011;15333;50.010;20.020;2023-12-28T15:46:00;35.20;;;16.27;;
28007;SDS011;15333;50.010;20.020;2023-12-28T15:49:01;30.80;;;16.20;;
28007;SDS011;15333;50.010;20.020;2023-12-28T15:52:02;28.63;;;14.88;;
28007;SDS011;15333;50.010;20.020;2023-12-28T15:55:03;35.65;;;17.15;;
28007;SDS011;15333;50.010;20.020;2023-12-28T15:58:04;20.65;;;12.63;;
28007;SDS011;15333;50.010;20.020;2023-12-28T16:01:05;22.52;;;11.98;;
28007;SDS011;15333;50.010;20.020;2023-12-28T16:04:06;21.92;;;11.20;;
28007;SDS011;15333;50.010;20.020;2023-12-28T16:07:07;21.73;;;11.32;;
28007;SDS011;15333;50.010;20.020;2023-12-28T16:10:08;22.92;;;12.32;;
28007;SDS011;15333;50.010;20.020;2023-12-28T16:13:09;21.05;;;11.85;;
28007;SDS011;15333;50.010;20.020;2023-12-28T16:16:10;21.35;;;12.63;;
28007;SDS011;15333;50.010;20.020;2023-12-28T16:19:12;23.30;;;12.70;;
28007;SDS011;15333;50.010;20.020;2023-12-28T16:22:13;21.60;;;11.32;;
28007;SDS011;15333;50.010;20.020;2023-12-28T16:25:15;19.80;;;11.65;;
28007;SDS011;15333;50.010;20.020;2023-12-28T16:28:16;24.38;;;11.52;;
28007;SDS011;15333;50.010;20.020;2023-12-28T16:31:17;22.65;;;12.55;;
28007;SDS011;15333;50.010;20.020;2023-12-28T16:34:18;22.90;;;12.27;;
28007;SDS011;15333;50.010;20.020;2023-12-28T16:37:19;19.02;;;10.00;;
28007;SDS011;15333;50.010;20.020;2023-12-28T16:40:20;19.20;;;9.70;;
28007;SDS011;15333;50.010;20.020;2023-12-28T16:43:20;16.88;;;8.93;;
28007;SDS011;15333;50.010;20.020;2023-12-28T16:46:23;15.75;;;8.65;;
28007;SDS011;15333;50.010;20.020;2023-12-28T16:49:24;14.93;;;9.10;;
28007;SDS011;15333;50.010;20.020;2023-12-28T16:52:25;17.80;;;9.18;;
28007;SDS011;15333;50.010;20.020;2023-12-28T16:55:26;22.60;;;10.93;;
28007;SDS011;15333;50.010;20.020;2023-12-28T16:58:26;23.58;;;11.52;;
28007;SDS011;15333;50.010;20.020;2023-12-28T17:01:27;26.42;;;13.70;;
28007;SDS011;15333;50.010;20.020;2023-12-28T17:04:28;27.30;;;14.07;;
28007;SDS011;15333;50.010;20.020;2023-12-28T17:07:29;32.22;;;15.45;;
28007;SDS011;15333;50.010;20.020;2023-12-28T17:10:30;33.72;;;16.48;;
28007;SDS011;15333;50.010;20.020;2023-12-28T17:13:31;28.35;;;15.18;;
28007;SDS011;15333;50.010;20.020;2023-12-28T17:16:33;29.92;;;15.82;;
28007;SDS011;15333;50.010;20.020;2023-12-28T17:19:34;28.20;;;14.77;;
28007;SDS011;15333;50.010;20.020;2023-12-28T17:22:43;31.77;;;15.40;;
28007;SDS011;15333;50.010;20.020;2023-12-28T17:28:49;26.67;;;14.80;;